sensor_id;sensor_type;location;lat;lon;timestamp;P1;durP1;ratioP1;P2;durP2;ratioP2
13032;SDS011;6583;42.632;23.298;2023-04-07T00:00:28;11.10;;;9.60;;
13032;SDS011;6583;42.632;23.298;2023-04-07T00:02:55;13.80;;;9.53;;
13032;SDS011;6583;42.632;23.298;2023-04-07T00:05:22;11.43;;;9.03;;
13032;SDS011;6583;42.632;23.298;2023-04-07T00:07:48;11.60;;;9.20;;
13032;SDS011;6583;42.632;23.298;2023-04-07T00:10:15;10.70;;;9.07;;
13032;SDS011;6583;42.632;23.298;2023-04-07T00:12:43;11.70;;;9.43;;
13032;SDS011;6583;42.632;23.298;2023-04-07T00:15:10;14.10;;;9.27;;
13032;SDS011;6583;42.632;23.298;2023-04-07T00:17:36;12.63;;;9.33;;
13032;SDS011;6583;42.632;23.298;2023-04-07T00:20:03;12.27;;;9.03;;
13032;SDS011;6583;42.632;23.298;2023-04-07T00:22:31;11.47;;;9.37;;
13032;SDS011;6583;42.632;23.298;2023-04-07T00:24:58;13.07;;;10.00;;
13032;SDS011;6583;42.632;23.298;2023-04-07T00:27:25;11.83;;;9.53;;
13032;SDS011;6583;42.632;23.298;2023-04-07T00:29:53;12.57;;;9.93;;
13032;SDS011;6583;42.632;23.298;2023-04-07T00:32:20;9.97;;;8.13;;
13032;SDS011;6583;42.632;23.298;2023-04-07T00:34:47;12.07;;;9.43;;
13032;SDS011;6583;42.632;23.298;2023-04-07T00:37:13;10.47;;;8.73;;
13032;SDS011;6583;42.632;23.298;2023-04-07T00:39:40;12.47;;;9.53;;
13032;SDS011;6583;42.632;23.298;2023-04-07T00:42:07;11.93;;;9.13;;
13032;SDS011;6583;42.632;23.298;2023-04-07T00:44:33;12.77;;;9.57;;
13032;SDS011;6583;42.632;23.298;2023-04-07T00:47:01;13.73;;;9.77;;
13032;SDS011;6583;42.632;23.298;2023-04-07T00:49:28;12.73;;;9.33;;
13032;SDS011;6583;42.632;23.298;2023-04-07T00:51:56;13.50;;;9.43;;
13032;SDS011;6583;42.632;23.298;2023-04-07T00:54:23;11.43;;;9.40;;
13032;SDS011;6583;42.632;23.298;2023-04-07T00:56:50;13.40;;;9.37;;
13032;SDS011;6583;42.632;23.298;2023-04-07T00:59:18;11.53;;;9.13;;
13032;SDS011;6583;42.632;23.298;2023-04-07T01:01:47;11.37;;;8.70;;
13032;SDS011;6583;42.632;23.298;2023-04-07T01:04:25;12.33;;;9.43;;
13032;SDS011;6583;42.632;23.298;2023-04-07T01:06:56;12.93;;;9.40;;
13032;SDS011;6583;42.632;23.298;2023-04-07T01:09:29;12.67;;;9.23;;
13032;SDS011;6583;42.632;23.298;2023-04-07T01:12:04;11.70;;;9.33;;
13032;SDS011;6583;42.632;23.298;2023-04-07T01:14:34;11.97;;;9.30;;
13032;SDS011;6583;42.632;23.298;2023-04-07T01:17:06;11.77;;;9.03;;
13032;SDS011;6583;42.632;23.298;2023-04-07T01:19:37;11.77;;;9.30;;
13032;SDS011;6583;42.632;23.298;2023-04-07T01:22:09;11.70;;;8.47;;
13032;SDS011;6583;42.632;23.298;2023-04-07T01:24:53;11.10;;;8.77;;
13032;SDS011;6583;42.632;23.298;2023-04-07T01:27:45;11.50;;;8.47;;
13032;SDS011;6583;42.632;23.298;2023-04-07T01:30:21;12.33;;;9.30;;
13032;SDS011;6583;42.632;23.298;2023-04-07T01:32:50;9.80;;;8.40;;
13032;SDS011;6583;42.632;23.298;2023-04-07T01:35:18;10.67;;;8.43;;
13032;SDS011;6583;42.632;23.298;2023-04-07T01:37:46;10.40;;;8.77;;
13032;SDS011;6583;42.632;23.298;2023-04-07T01:40:14;12.67;;;8.77;;
13032;SDS011;6583;42.632;23.298;2023-04-07T01:42:42;11.10;;;9.00;;
13032;SDS011;6583;42.632;23.298;2023-04-07T01:45:11;11.73;;;8.10;;
13032;SDS011;6583;42.632;23.298;2023-04-07T01:47:39;10.20;;;8.53;;
13032;SDS011;6583;42.632;23.298;2023-04-07T01:50:06;10.90;;;9.00;;
13032;SDS011;6583;42.632;23.298;2023-04-07T01:52:35;9.80;;;8.63;;
13032;SDS011;6583;42.632;23.298;2023-04-07T01:55:04;9.80;;;8.70;;
13032;SDS011;6583;42.632;23.298;2023-04-07T01:57:32;10.20;;;8.17;;
13032;SDS011;6583;42.632;23.298;2023-04-07T01:59:58;9.00;;;8.07;;
13032;SDS011;6583;42.632;23.298;2023-04-07T02:02:25;11.47;;;8.47;;
13032;SDS011;6583;42.632;23.298;2023-04-07T02:04:54;11.53;;;9.00;;
13032;SDS011;6583;42.632;23.298;2023-04-07T02:07:24;8.50;;;7.37;;
13032;SDS011;6583;42.632;23.298;2023-04-07T02:09:55;10.63;;;8.00;;
13032;SDS011;6583;42.632;23.298;2023-04-07T02:12:24;10.77;;;8.50;;
13032;SDS011;6583;42.632;23.298;2023-04-07T02:14:53;11.00;;;9.00;;
13032;SDS011;6583;42.632;23.298;2023-04-07T02:17:20;10.83;;;8.40;;
13032;SDS011;6583;42.632;23.298;2023-04-07T02:19:49;11.43;;;8.63;;
13032;SDS011;6583;42.632;23.298;2023-04-07T02:22:19;12.30;;;8.40;;
13032;SDS011;6583;42.632;23.298;2023-04-07T02:24:45;9.43;;;8.13;;
13032;SDS011;6583;42.632;23.298;2023-04-07T02:27:12;10.20;;;7.80;;
13032;SDS011;6583;42.632;23.298;2023-04-07T02:29:39;10.87;;;8.53;;
13032;SDS011;6583;42.632;23.298;2023-04-07T02:32:06;9.53;;;8.23;;
13032;SDS011;6583;42.632;23.298;2023-04-07T02:34:32;10.03;;;8.30;;
13032;SDS011;6583;42.632;23.298;2023-04-07T02:36:59;8.97;;;7.73;;
13032;SDS011;6583;42.632;23.298;2023-04-07T02:39:27;9.33;;;7.90;;
13032;SDS011;6583;42.632;23.298;2023-04-07T02:41:54;10.50;;;8.23;;
13032;SDS011;6583;42.632;23.298;2023-04-07T02:44:20;10.67;;;7.80;;
13032;SDS011;6583;42.632;23.298;2023-04-07T02:46:47;10.57;;;8.20;;
13032;SDS011;6583;42.632;23.298;2023-04-07T02:49:14;10.83;;;8.27;;
13032;SDS011;6583;42.632;23.298;2023-04-07T02:51:40;11.23;;;8.30;;
13032;SDS011;6583;42.632;23.298;2023-04-07T02:54:07;10.03;;;7.87;;
13032;SDS011;6583;42.632;23.298;2023-04-07T02:56:35;9.83;;;8.30;;
13032;SDS011;6583;42.632;23.298;2023-04-07T02:59:02;9.47;;;7.97;;
13032;SDS011;6583;42.632;23.298;2023-04-07T03:01:28;9.00;;;8.10;;
13032;SDS011;6583;42.632;23.298;2023-04-07T03:03:55;10.97;;;8.10;;
13032;SDS011;6583;42.632;23.298;2023-04-07T03:06:22;10.00;;;7.80;;
13032;SDS011;6583;42.632;23.298;2023-04-07T03:08:48;9.90;;;8.30;;
13032;SDS011;6583;42.632;23.298;2023-04-07T03:11:15;10.17;;;7.73;;
13032;SDS011;6583;42.632;23.298;2023-04-07T03:13:43;9.27;;;7.23;;
13032;SDS011;6583;42.632;23.298;2023-04-07T03:16:10;9.90;;;7.57;;
13032;SDS011;6583;42.632;23.298;2023-04-07T03:18:36;10.73;;;8.00;;
13032;SDS011;6583;42.632;23.298;2023-04-07T03:21:03;9.93;;;8.10;;
13032;SDS011;6583;42.632;23.298;2023-04-07T03:23:30;9.97;;;7.97;;
13032;SDS011;6583;42.632;23.298;2023-04-07T03:25:56;10.23;;;8.20;;
13032;SDS011;6583;42.632;23.298;2023-04-07T03:28:23;9.80;;;7.17;;
13032;SDS011;6583;42.632;23.298;2023-04-07T03:30:51;8.20;;;7.27;;
13032;SDS011;6583;42.632;23.298;2023-04-07T03:33:18;11.10;;;7.63;;
13032;SDS011;6583;42.632;23.298;2023-04-07T03:35:44;8.73;;;7.33;;
13032;SDS011;6583;42.632;23.298;2023-04-07T03:38:11;9.77;;;7.47;;
13032;SDS011;6583;42.632;23.298;2023-04-07T03:40:38;9.37;;;7.20;;
13032;SDS011;6583;42.632;23.298;2023-04-07T03:43:05;10.27;;;8.07;;
13032;SDS011;6583;42.632;23.298;2023-04-07T03:45:36;8.70;;;7.50;;
13032;SDS011;6583;42.632;23.298;2023-04-07T03:48:04;11.33;;;7.50;;
13032;SDS011;6583;42.632;23.298;2023-04-07T03:50:34;9.27;;;7.73;;
13032;SDS011;6583;42.632;23.298;2023-04-07T03:53:01;11.57;;;7.80;;
13032;SDS011;6583;42.632;23.298;2023-04-07T03:55:27;10.83;;;7.80;;
13032;SDS011;6583;42.632;23.298;2023-04-07T03:57:55;9.00;;;7.37;;
13032;SDS011;6583;42.632;23.298;2023-04-07T04:00:22;8.73;;;7.53;;
13032;SDS011;6583;42.632;23.298;2023-04-07T04:02:48;9.70;;;7.73;;
13032;SDS011;6583;42.632;23.298;2023-04-07T04:05:17;9.83;;;7.63;;
13032;SDS011;6583;42.632;23.298;2023-04-07T04:07:43;9.97;;;7.60;;
13032;SDS011;6583;42.632;23.298;2023-04-07T04:10:10;11.37;;;7.37;;
13032;SDS011;6583;42.632;23.298;2023-04-07T04:12:37;10.40;;;8.30;;
13032;SDS011;6583;42.632;23.298;2023-04-07T04:15:06;9.33;;;7.40;;
13032;SDS011;6583;42.632;23.298;2023-04-07T04:17:33;8.50;;;7.40;;
13032;SDS011;6583;42.632;23.298;2023-04-07T04:20:00;11.00;;;7.43;;
13032;SDS011;6583;42.632;23.298;2023-04-07T04:22:28;11.50;;;7.67;;
13032;SDS011;6583;42.632;23.298;2023-04-07T04:24:54;9.63;;;7.10;;
13032;SDS011;6583;42.632;23.298;2023-04-07T04:27:21;9.03;;;7.33;;
13032;SDS011;6583;42.632;23.298;2023-04-07T04:29:48;11.50;;;7.90;;
13032;SDS011;6583;42.632;23.298;2023-04-07T04:32:15;11.70;;;7.70;;
13032;SDS011;6583;42.632;23.298;2023-04-07T04:34:42;9.97;;;7.20;;
13032;SDS011;6583;42.632;23.298;2023-04-07T04:37:09;10.07;;;7.43;;
13032;SDS011;6583;42.632;23.298;2023-04-07T04:39:37;8.97;;;7.37;;
13032;SDS011;6583;42.632;23.298;2023-04-07T04:42:04;11.13;;;7.53;;
13032;SDS011;6583;42.632;23.298;2023-04-07T04:44:31;8.90;;;6.50;;
13032;SDS011;6583;42.632;23.298;2023-04-07T04:46:58;9.37;;;7.40;;
13032;SDS011;6583;42.632;23.298;2023-04-07T04:49:24;9.67;;;7.53;;
13032;SDS011;6583;42.632;23.298;2023-04-07T04:51:51;9.13;;;7.13;;
13032;SDS011;6583;42.632;23.298;2023-04-07T04:54:18;9.43;;;7.40;;
13032;SDS011;6583;42.632;23.298;2023-04-07T04:56:46;8.97;;;7.60;;
13032;SDS011;6583;42.632;23.298;2023-04-07T04:59:12;9.33;;;7.13;;
13032;SDS011;6583;42.632;23.298;2023-04-07T05:01:39;8.93;;;6.40;;
13032;SDS011;6583;42.632;23.298;2023-04-07T05:04:06;8.90;;;6.50;;
13032;SDS011;6583;42.632;23.298;2023-04-07T05:06:34;7.37;;;6.60;;
13032;SDS011;6583;42.632;23.298;2023-04-07T05:09:00;8.27;;;7.33;;
13032;SDS011;6583;42.632;23.298;2023-04-07T05:11:27;9.47;;;7.50;;
13032;SDS011;6583;42.632;23.298;2023-04-07T05:13:55;10.87;;;7.03;;
13032;SDS011;6583;42.632;23.298;2023-04-07T05:16:22;10.37;;;7.10;;
13032;SDS011;6583;42.632;23.298;2023-04-07T05:18:48;9.70;;;7.40;;
13032;SDS011;6583;42.632;23.298;2023-04-07T05:21:15;8.33;;;6.67;;
13032;SDS011;6583;42.632;23.298;2023-04-07T05:23:44;10.10;;;6.93;;
13032;SDS011;6583;42.632;23.298;2023-04-07T05:26:10;7.73;;;6.80;;
13032;SDS011;6583;42.632;23.298;2023-04-07T05:28:37;8.47;;;6.90;;
13032;SDS011;6583;42.632;23.298;2023-04-07T05:31:05;10.10;;;7.17;;
13032;SDS011;6583;42.632;23.298;2023-04-07T05:33:32;8.43;;;6.90;;
13032;SDS011;6583;42.632;23.298;2023-04-07T05:35:59;9.57;;;7.43;;
13032;SDS011;6583;42.632;23.298;2023-04-07T05:38:26;8.43;;;6.80;;
13032;SDS011;6583;42.632;23.298;2023-04-07T05:40:52;13.00;;;6.50;;
13032;SDS011;6583;42.632;23.298;2023-04-07T05:43:19;6.97;;;6.20;;
13032;SDS011;6583;42.632;23.298;2023-04-07T05:45:46;8.03;;;6.33;;
13032;SDS011;6583;42.632;23.298;2023-04-07T05:48:14;8.60;;;6.40;;
13032;SDS011;6583;42.632;23.298;2023-04-07T05:50:41;8.10;;;6.73;;
13032;SDS011;6583;42.632;23.298;2023-04-07T05:53:07;9.33;;;7.13;;
13032;SDS011;6583;42.632;23.298;2023-04-07T05:55:34;15.70;;;13.00;;
13032;SDS011;6583;42.632;23.298;2023-04-07T05:58:01;15.70;;;12.57;;
13032;SDS011;6583;42.632;23.298;2023-04-07T06:00:27;18.57;;;12.97;;
13032;SDS011;6583;42.632;23.298;2023-04-07T06:02:54;17.40;;;14.07;;
13032;SDS011;6583;42.632;23.298;2023-04-07T06:05:22;19.60;;;13.97;;
13032;SDS011;6583;42.632;23.298;2023-04-07T06:07:48;16.00;;;12.93;;
13032;SDS011;6583;42.632;23.298;2023-04-07T06:10:15;17.30;;;13.13;;
13032;SDS011;6583;42.632;23.298;2023-04-07T06:12:42;19.43;;;14.20;;
13032;SDS011;6583;42.632;23.298;2023-04-07T06:15:09;15.70;;;11.10;;
13032;SDS011;6583;42.632;23.298;2023-04-07T06:17:36;11.70;;;8.63;;
13032;SDS011;6583;42.632;23.298;2023-04-07T06:20:03;9.93;;;7.23;;
13032;SDS011;6583;42.632;23.298;2023-04-07T06:22:32;8.27;;;7.00;;
13032;SDS011;6583;42.632;23.298;2023-04-07T06:24:59;8.90;;;7.23;;
13032;SDS011;6583;42.632;23.298;2023-04-07T06:27:27;9.77;;;7.57;;
13032;SDS011;6583;42.632;23.298;2023-04-07T06:29:54;9.13;;;7.20;;
13032;SDS011;6583;42.632;23.298;2023-04-07T06:32:21;8.57;;;7.00;;
13032;SDS011;6583;42.632;23.298;2023-04-07T06:34:48;9.17;;;7.20;;
13032;SDS011;6583;42.632;23.298;2023-04-07T06:37:15;9.10;;;7.53;;
13032;SDS011;6583;42.632;23.298;2023-04-07T06:39:43;9.93;;;6.97;;
13032;SDS011;6583;42.632;23.298;2023-04-07T06:42:10;7.37;;;6.67;;
13032;SDS011;6583;42.632;23.298;2023-04-07T06:44:37;10.50;;;7.07;;
13032;SDS011;6583;42.632;23.298;2023-04-07T06:47:03;8.60;;;7.17;;
13032;SDS011;6583;42.632;23.298;2023-04-07T06:49:30;8.37;;;7.40;;
13032;SDS011;6583;42.632;23.298;2023-04-07T06:51:57;8.93;;;6.30;;
13032;SDS011;6583;42.632;23.298;2023-04-07T06:54:23;11.10;;;7.10;;
13032;SDS011;6583;42.632;23.298;2023-04-07T06:56:52;7.67;;;6.50;;
13032;SDS011;6583;42.632;23.298;2023-04-07T06:59:18;8.13;;;6.40;;
13032;SDS011;6583;42.632;23.298;2023-04-07T07:01:45;8.77;;;6.17;;
13032;SDS011;6583;42.632;23.298;2023-04-07T07:04:13;10.93;;;7.17;;
13032;SDS011;6583;42.632;23.298;2023-04-07T07:06:39;7.30;;;6.57;;
13032;SDS011;6583;42.632;23.298;2023-04-07T07:09:06;9.07;;;6.70;;
13032;SDS011;6583;42.632;23.298;2023-04-07T07:11:33;9.10;;;7.07;;
13032;SDS011;6583;42.632;23.298;2023-04-07T07:14:01;7.83;;;7.03;;
13032;SDS011;6583;42.632;23.298;2023-04-07T07:16:28;8.83;;;6.80;;
13032;SDS011;6583;42.632;23.298;2023-04-07T07:18:54;8.40;;;7.27;;
13032;SDS011;6583;42.632;23.298;2023-04-07T07:21:21;10.77;;;7.50;;
13032;SDS011;6583;42.632;23.298;2023-04-07T07:23:48;10.33;;;7.60;;
13032;SDS011;6583;42.632;23.298;2023-04-07T07:26:15;10.10;;;7.57;;
13032;SDS011;6583;42.632;23.298;2023-04-07T07:28:41;10.03;;;7.50;;
13032;SDS011;6583;42.632;23.298;2023-04-07T07:31:10;9.13;;;6.77;;
13032;SDS011;6583;42.632;23.298;2023-04-07T07:33:39;9.17;;;7.07;;
13032;SDS011;6583;42.632;23.298;2023-04-07T07:36:08;7.73;;;6.70;;
13032;SDS011;6583;42.632;23.298;2023-04-07T07:38:34;7.67;;;6.83;;
13032;SDS011;6583;42.632;23.298;2023-04-07T07:41:05;8.83;;;6.63;;
13032;SDS011;6583;42.632;23.298;2023-04-07T07:43:32;8.20;;;6.43;;
13032;SDS011;6583;42.632;23.298;2023-04-07T07:45:59;7.10;;;6.10;;
13032;SDS011;6583;42.632;23.298;2023-04-07T07:48:27;7.57;;;6.00;;
13032;SDS011;6583;42.632;23.298;2023-04-07T07:50:54;10.83;;;6.97;;
13032;SDS011;6583;42.632;23.298;2023-04-07T07:53:21;8.00;;;7.20;;
13032;SDS011;6583;42.632;23.298;2023-04-07T07:55:48;7.53;;;6.53;;
13032;SDS011;6583;42.632;23.298;2023-04-07T07:58:15;7.73;;;6.93;;
13032;SDS011;6583;42.632;23.298;2023-04-07T08:00:41;8.57;;;6.80;;
13032;SDS011;6583;42.632;23.298;2023-04-07T08:03:08;8.03;;;6.47;;
13032;SDS011;6583;42.632;23.298;2023-04-07T08:05:36;8.03;;;6.90;;
13032;SDS011;6583;42.632;23.298;2023-04-07T08:08:03;9.83;;;7.17;;
13032;SDS011;6583;42.632;23.298;2023-04-07T08:10:30;10.00;;;7.27;;
13032;SDS011;6583;42.632;23.298;2023-04-07T08:12:56;8.30;;;6.73;;
13032;SDS011;6583;42.632;23.298;2023-04-07T08:15:23;10.47;;;7.50;;
13032;SDS011;6583;42.632;23.298;2023-04-07T08:17:50;9.40;;;6.67;;
13032;SDS011;6583;42.632;23.298;2023-04-07T08:20:17;8.20;;;6.80;;
13032;SDS011;6583;42.632;23.298;2023-04-07T08:22:45;8.03;;;6.73;;
13032;SDS011;6583;42.632;23.298;2023-04-07T08:25:11;8.27;;;6.77;;
13032;SDS011;6583;42.632;23.298;2023-04-07T08:27:38;8.77;;;6.40;;
13032;SDS011;6583;42.632;23.298;2023-04-07T08:30:05;8.27;;;7.30;;
13032;SDS011;6583;42.632;23.298;2023-04-07T08:32:33;8.80;;;6.53;;
13032;SDS011;6583;42.632;23.298;2023-04-07T08:35:00;10.40;;;6.90;;
13032;SDS011;6583;42.632;23.298;2023-04-07T08:37:27;7.83;;;6.53;;
13032;SDS011;6583;42.632;23.298;2023-04-07T08:39:55;8.33;;;6.20;;
13032;SDS011;6583;42.632;23.298;2023-04-07T08:42:22;9.23;;;6.50;;
13032;SDS011;6583;42.632;23.298;2023-04-07T08:44:53;8.60;;;6.47;;
13032;SDS011;6583;42.632;23.298;2023-04-07T08:47:22;7.90;;;6.17;;
13032;SDS011;6583;42.632;23.298;2023-04-07T08:49:51;7.83;;;6.30;;
13032;SDS011;6583;42.632;23.298;2023-04-07T08:52:20;6.97;;;6.27;;
13032;SDS011;6583;42.632;23.298;2023-04-07T08:54:48;7.77;;;6.50;;
13032;SDS011;6583;42.632;23.298;2023-04-07T08:57:16;7.07;;;6.37;;
13032;SDS011;6583;42.632;23.298;2023-04-07T08:59:43;6.67;;;5.97;;
13032;SDS011;6583;42.632;23.298;2023-04-07T09:02:13;7.23;;;5.77;;
13032;SDS011;6583;42.632;23.298;2023-04-07T09:04:46;6.93;;;5.97;;
13032;SDS011;6583;42.632;23.298;2023-04-07T09:07:13;9.00;;;6.43;;
13032;SDS011;6583;42.632;23.298;2023-04-07T09:09:39;7.13;;;6.00;;
13032;SDS011;6583;42.632;23.298;2023-04-07T09:12:06;6.50;;;5.80;;
13032;SDS011;6583;42.632;23.298;2023-04-07T09:14:34;7.67;;;5.97;;
13032;SDS011;6583;42.632;23.298;2023-04-07T09:17:01;7.37;;;5.80;;
13032;SDS011;6583;42.632;23.298;2023-04-07T09:19:27;8.87;;;5.63;;
13032;SDS011;6583;42.632;23.298;2023-04-07T09:21:55;6.83;;;6.17;;
13032;SDS011;6583;42.632;23.298;2023-04-07T09:24:23;6.83;;;5.50;;
13032;SDS011;6583;42.632;23.298;2023-04-07T09:29:37;6.83;;;6.13;;
13032;SDS011;6583;42.632;23.298;2023-04-07T09:32:04;7.63;;;6.00;;
13032;SDS011;6583;42.632;23.298;2023-04-07T09:34:32;8.00;;;5.87;;
13032;SDS011;6583;42.632;23.298;2023-04-07T09:36:59;7.90;;;6.43;;
13032;SDS011;6583;42.632;23.298;2023-04-07T09:39:27;9.73;;;6.70;;
13032;SDS011;6583;42.632;23.298;2023-04-07T09:41:53;8.07;;;6.53;;
13032;SDS011;6583;42.632;23.298;2023-04-07T09:44:21;9.50;;;7.23;;
13032;SDS011;6583;42.632;23.298;2023-04-07T09:46:49;8.97;;;6.43;;
13032;SDS011;6583;42.632;23.298;2023-04-07T09:49:17;8.03;;;6.67;;
13032;SDS011;6583;42.632;23.298;2023-04-07T09:51:51;8.33;;;7.00;;
13032;SDS011;6583;42.632;23.298;2023-04-07T09:54:31;9.57;;;6.87;;
13032;SDS011;6583;42.632;23.298;2023-04-07T09:56:59;7.83;;;7.00;;
13032;SDS011;6583;42.632;23.298;2023-04-07T09:59:27;7.80;;;6.60;;
13032;SDS011;6583;42.632;23.298;2023-04-07T10:01:56;8.87;;;6.53;;
13032;SDS011;6583;42.632;23.298;2023-04-07T10:04:23;7.20;;;6.40;;
13032;SDS011;6583;42.632;23.298;2023-04-07T10:06:51;8.57;;;7.17;;
13032;SDS011;6583;42.632;23.298;2023-04-07T10:09:18;9.63;;;6.93;;
13032;SDS011;6583;42.632;23.298;2023-04-07T10:11:45;6.97;;;6.27;;
13032;SDS011;6583;42.632;23.298;2023-04-07T10:14:14;9.40;;;6.93;;
13032;SDS011;6583;42.632;23.298;2023-04-07T10:16:41;9.00;;;6.90;;
13032;SDS011;6583;42.632;23.298;2023-04-07T10:19:10;9.07;;;7.00;;
13032;SDS011;6583;42.632;23.298;2023-04-07T10:21:38;8.13;;;6.70;;
13032;SDS011;6583;42.632;23.298;2023-04-07T10:24:09;8.57;;;7.27;;
13032;SDS011;6583;42.632;23.298;2023-04-07T10:26:44;9.40;;;6.77;;
13032;SDS011;6583;42.632;23.298;2023-04-07T10:29:16;8.47;;;7.27;;
13032;SDS011;6583;42.632;23.298;2023-04-07T10:31:44;8.90;;;7.23;;
13032;SDS011;6583;42.632;23.298;2023-04-07T10:34:13;10.03;;;6.80;;
13032;SDS011;6583;42.632;23.298;2023-04-07T10:39:34;8.67;;;6.90;;
13032;SDS011;6583;42.632;23.298;2023-04-07T10:42:01;7.63;;;6.77;;
13032;SDS011;6583;42.632;23.298;2023-04-07T10:47:11;9.70;;;7.70;;
13032;SDS011;6583;42.632;23.298;2023-04-07T10:49:40;7.90;;;6.57;;
13032;SDS011;6583;42.632;23.298;2023-04-07T10:52:44;8.17;;;6.37;;
13032;SDS011;6583;42.632;23.298;2023-04-07T10:55:27;6.97;;;6.00;;
13032;SDS011;6583;42.632;23.298;2023-04-07T11:03:54;7.50;;;6.20;;
13032;SDS011;6583;42.632;23.298;2023-04-07T11:06:24;7.60;;;6.90;;
13032;SDS011;6583;42.632;23.298;2023-04-07T11:08:51;10.00;;;7.93;;
13032;SDS011;6583;42.632;23.298;2023-04-07T11:11:19;9.10;;;8.10;;
13032;SDS011;6583;42.632;23.298;2023-04-07T11:14:01;9.57;;;7.93;;
13032;SDS011;6583;42.632;23.298;2023-04-07T11:16:33;10.00;;;8.60;;
13032;SDS011;6583;42.632;23.298;2023-04-07T11:19:01;9.93;;;8.53;;
13032;SDS011;6583;42.632;23.298;2023-04-07T11:21:29;9.20;;;7.97;;
13032;SDS011;6583;42.632;23.298;2023-04-07T11:23:56;9.93;;;8.20;;
13032;SDS011;6583;42.632;23.298;2023-04-07T11:26:23;10.53;;;8.03;;
13032;SDS011;6583;42.632;23.298;2023-04-07T11:28:50;9.47;;;7.13;;
13032;SDS011;6583;42.632;23.298;2023-04-07T11:31:20;8.27;;;6.63;;
13032;SDS011;6583;42.632;23.298;2023-04-07T11:33:50;8.17;;;6.53;;
13032;SDS011;6583;42.632;23.298;2023-04-07T11:36:25;9.67;;;7.27;;
13032;SDS011;6583;42.632;23.298;2023-04-07T11:38:54;8.33;;;7.00;;
13032;SDS011;6583;42.632;23.298;2023-04-07T11:41:21;7.77;;;6.57;;
13032;SDS011;6583;42.632;23.298;2023-04-07T11:43:48;9.17;;;7.50;;
13032;SDS011;6583;42.632;23.298;2023-04-07T11:46:16;7.40;;;6.70;;
13032;SDS011;6583;42.632;23.298;2023-04-07T11:48:44;8.20;;;6.30;;
13032;SDS011;6583;42.632;23.298;2023-04-07T11:51:15;8.67;;;6.93;;
13032;SDS011;6583;42.632;23.298;2023-04-07T11:53:43;10.57;;;8.60;;
13032;SDS011;6583;42.632;23.298;2023-04-07T11:56:16;10.90;;;9.70;;
13032;SDS011;6583;42.632;23.298;2023-04-07T11:58:46;11.13;;;9.03;;
13032;SDS011;6583;42.632;23.298;2023-04-07T12:01:13;11.77;;;9.63;;
13032;SDS011;6583;42.632;23.298;2023-04-07T12:03:53;10.80;;;9.47;;
13032;SDS011;6583;42.632;23.298;2023-04-07T12:06:26;10.33;;;7.90;;
13032;SDS011;6583;42.632;23.298;2023-04-07T12:08:54;11.27;;;8.57;;
13032;SDS011;6583;42.632;23.298;2023-04-07T12:11:23;9.93;;;8.77;;
13032;SDS011;6583;42.632;23.298;2023-04-07T12:13:50;12.50;;;9.47;;
13032;SDS011;6583;42.632;23.298;2023-04-07T12:16:17;9.40;;;8.23;;
13032;SDS011;6583;42.632;23.298;2023-04-07T12:18:44;10.90;;;8.90;;
13032;SDS011;6583;42.632;23.298;2023-04-07T12:21:10;10.33;;;9.23;;
13032;SDS011;6583;42.632;23.298;2023-04-07T12:23:37;9.67;;;8.70;;
13032;SDS011;6583;42.632;23.298;2023-04-07T12:26:05;12.10;;;10.07;;
13032;SDS011;6583;42.632;23.298;2023-04-07T12:28:33;10.87;;;9.77;;
13032;SDS011;6583;42.632;23.298;2023-04-07T12:30:59;10.90;;;9.30;;
13032;SDS011;6583;42.632;23.298;2023-04-07T12:33:26;10.77;;;8.97;;
13032;SDS011;6583;42.632;23.298;2023-04-07T12:35:53;11.13;;;9.27;;
13032;SDS011;6583;42.632;23.298;2023-04-07T12:38:20;11.47;;;9.60;;
13032;SDS011;6583;42.632;23.298;2023-04-07T12:40:46;11.50;;;8.87;;
13032;SDS011;6583;42.632;23.298;2023-04-07T12:43:13;10.70;;;9.13;;
13032;SDS011;6583;42.632;23.298;2023-04-07T12:45:41;10.20;;;9.20;;
13032;SDS011;6583;42.632;23.298;2023-04-07T12:48:07;11.23;;;10.00;;
13032;SDS011;6583;42.632;23.298;2023-04-07T12:50:34;11.40;;;10.00;;
13032;SDS011;6583;42.632;23.298;2023-04-07T12:53:01;11.33;;;9.33;;
13032;SDS011;6583;42.632;23.298;2023-04-07T12:55:29;11.03;;;9.87;;
13032;SDS011;6583;42.632;23.298;2023-04-07T12:57:57;11.07;;;9.47;;
13032;SDS011;6583;42.632;23.298;2023-04-07T13:00:24;10.60;;;9.50;;
13032;SDS011;6583;42.632;23.298;2023-04-07T13:02:52;10.10;;;9.00;;
13032;SDS011;6583;42.632;23.298;2023-04-07T13:05:19;11.47;;;9.50;;
13032;SDS011;6583;42.632;23.298;2023-04-07T13:07:46;10.90;;;9.37;;
13032;SDS011;6583;42.632;23.298;2023-04-07T13:10:12;11.03;;;9.87;;
13032;SDS011;6583;42.632;23.298;2023-04-07T13:12:39;13.67;;;9.70;;
13032;SDS011;6583;42.632;23.298;2023-04-07T13:15:06;10.60;;;9.50;;
13032;SDS011;6583;42.632;23.298;2023-04-07T13:17:33;12.23;;;10.37;;
13032;SDS011;6583;42.632;23.298;2023-04-07T13:20:04;11.40;;;10.20;;
13032;SDS011;6583;42.632;23.298;2023-04-07T13:22:31;11.83;;;9.70;;
13032;SDS011;6583;42.632;23.298;2023-04-07T13:24:58;9.80;;;8.80;;
13032;SDS011;6583;42.632;23.298;2023-04-07T13:27:25;11.10;;;9.77;;
13032;SDS011;6583;42.632;23.298;2023-04-07T13:29:51;10.23;;;9.13;;
13032;SDS011;6583;42.632;23.298;2023-04-07T13:32:18;13.73;;;9.97;;
13032;SDS011;6583;42.632;23.298;2023-04-07T13:34:45;13.67;;;10.03;;
13032;SDS011;6583;42.632;23.298;2023-04-07T13:37:13;11.17;;;9.57;;
13032;SDS011;6583;42.632;23.298;2023-04-07T13:39:40;11.17;;;9.70;;
13032;SDS011;6583;42.632;23.298;2023-04-07T13:42:07;13.77;;;10.63;;
13032;SDS011;6583;42.632;23.298;2023-04-07T13:44:34;10.83;;;9.40;;
13032;SDS011;6583;42.632;23.298;2023-04-07T13:47:01;12.67;;;10.23;;
13032;SDS011;6583;42.632;23.298;2023-04-07T13:49:28;12.77;;;9.87;;
13032;SDS011;6583;42.632;23.298;2023-04-07T13:51:55;14.23;;;10.90;;
13032;SDS011;6583;42.632;23.298;2023-04-07T13:54:23;11.87;;;9.87;;
13032;SDS011;6583;42.632;23.298;2023-04-07T13:56:49;11.80;;;9.53;;
13032;SDS011;6583;42.632;23.298;2023-04-07T14:17:16;11.83;;;10.63;;
13032;SDS011;6583;42.632;23.298;2023-04-07T14:19:43;12.23;;;10.43;;
13032;SDS011;6583;42.632;23.298;2023-04-07T14:22:12;12.40;;;10.47;;
13032;SDS011;6583;42.632;23.298;2023-04-07T14:24:38;11.90;;;10.70;;
13032;SDS011;6583;42.632;23.298;2023-04-07T14:27:05;12.30;;;10.23;;
13032;SDS011;6583;42.632;23.298;2023-04-07T14:29:31;13.00;;;10.00;;
13032;SDS011;6583;42.632;23.298;2023-04-07T14:31:58;11.77;;;10.47;;
13032;SDS011;6583;42.632;23.298;2023-04-07T14:34:26;11.33;;;10.03;;
13032;SDS011;6583;42.632;23.298;2023-04-07T14:36:53;10.80;;;8.90;;
13032;SDS011;6583;42.632;23.298;2023-04-07T14:39:21;13.17;;;9.93;;
13032;SDS011;6583;42.632;23.298;2023-04-07T14:41:50;12.83;;;10.90;;
13032;SDS011;6583;42.632;23.298;2023-04-07T14:44:17;13.57;;;11.67;;
13032;SDS011;6583;42.632;23.298;2023-04-07T14:46:44;12.13;;;10.80;;
13032;SDS011;6583;42.632;23.298;2023-04-07T14:49:12;15.23;;;11.80;;
13032;SDS011;6583;42.632;23.298;2023-04-07T14:51:40;13.17;;;10.90;;
13032;SDS011;6583;42.632;23.298;2023-04-07T14:54:07;12.40;;;10.93;;
13032;SDS011;6583;42.632;23.298;2023-04-07T14:56:33;13.23;;;10.33;;
13032;SDS011;6583;42.632;23.298;2023-04-07T14:59:00;15.03;;;11.30;;
13032;SDS011;6583;42.632;23.298;2023-04-07T15:01:27;12.60;;;11.30;;
13032;SDS011;6583;42.632;23.298;2023-04-07T15:03:53;13.20;;;10.97;;
13032;SDS011;6583;42.632;23.298;2023-04-07T15:06:20;12.00;;;10.73;;
13032;SDS011;6583;42.632;23.298;2023-04-07T15:08:48;12.20;;;10.03;;
13032;SDS011;6583;42.632;23.298;2023-04-07T15:11:15;14.70;;;10.60;;
13032;SDS011;6583;42.632;23.298;2023-04-07T15:13:42;11.93;;;10.00;;
13032;SDS011;6583;42.632;23.298;2023-04-07T15:16:09;14.07;;;10.83;;